Time;durP1;ratioP1;P1;durP2;ratioP2;P2;SDS_P1;SDS_P2;PMS_P1;PMS_P2;Temp;Humidity;BMP_temperature;BMP_pressure;BME280_temperature;BME280_humidity;BME280_pressure;Samples;Min_cycle;Max_cycle;Signal;HPM_P1;HPM_P2
2021/07/30 00:01:32;;;;;;;6.27;2.40;;;;;;;;;;4961827;28;20651;-56
2021/07/30 00:03:57;;;;;;;4.03;2.00;;;;;;;;;;4977144;28;20210;-57
2021/07/30 00:06:22;;;;;;;7.65;2.20;;;;;;;;;;4988180;28;20176;-56
2021/07/30 00:08:48;;;;;;;6.78;2.55;;;;;;;;;;4988399;28;20602;-56
2021/07/30 00:11:13;;;;;;;7.37;2.30;;;;;;;;;;4981326;28;20203;-56
2021/07/30 00:13:38;;;;;;;4.63;2.10;;;;;;;;;;4956135;28;20188;-56
2021/07/30 00:16:03;;;;;;;6.23;2.87;;;;;;;;;;4966549;28;20176;-56
2021/07/30 00:18:28;;;;;;;8.35;2.30;;;;;;;;;;4984312;28;20216;-56
2021/07/30 00:20:54;;;;;;;4.38;2.15;;;;;;;;;;4958283;28;20230;-56
2021/07/30 00:23:19;;;;;;;10.57;2.53;;;;;;;;;;4971586;28;20246;-55
2021/07/30 00:25:45;;;;;;;4.38;2.22;;;;;;;;;;4976639;28;20224;-56
2021/07/30 00:28:10;;;;;;;2.87;2.20;;;;;;;;;;4976646;28;20199;-56
2021/07/30 00:30:35;;;;;;;6.40;2.37;;;;;;;;;;4964022;28;20525;-56
2021/07/30 00:33:00;;;;;;;3.73;2.07;;;;;;;;;;4985738;28;20420;-56
2021/07/30 00:35:25;;;;;;;6.60;2.20;;;;;;;;;;4975364;28;20208;-56
2021/07/30 00:37:51;;;;;;;4.87;2.10;;;;;;;;;;4984688;28;20243;-57
2021/07/30 00:40:16;;;;;;;7.27;2.40;;;;;;;;;;4966644;28;20229;-56
2021/07/30 00:42:51;;;;;;;3.20;2.07;;;;;;;;;;5000797;28;20212;-56
2021/07/30 00:45:16;;;;;;;3.73;2.33;;;;;;;;;;4977255;28;20210;-56
2021/07/30 00:47:41;;;;;;;4.97;2.57;;;;;;;;;;4972788;28;20181;-56
2021/07/30 00:50:07;;;;;;;4.87;2.30;;;;;;;;;;4983763;28;20187;-56
2021/07/30 00:52:32;;;;;;;3.27;2.00;;;;;;;;;;4988265;28;20188;-55
2021/07/30 00:54:57;;;;;;;4.53;2.13;;;;;;;;;;4985500;28;20219;-55
2021/07/30 00:57:23;;;;;;;5.13;2.70;;;;;;;;;;4976680;28;20185;-56
2021/07/30 00:59:48;;;;;;;7.10;2.10;;;;;;;;;;4949948;28;20203;-56
2021/07/30 01:02:14;;;;;;;4.23;2.30;;;;;;;;;;4980890;28;20283;-56
2021/07/30 01:04:39;;;;;;;3.87;2.30;;;;;;;;;;4975994;28;20721;-55
2021/07/30 01:07:04;;;;;;;5.40;2.20;;;;;;;;;;4983473;28;20664;-56
2021/07/30 01:09:29;;;;;;;7.00;2.63;;;;;;;;;;4976988;28;20204;-56
2021/07/30 01:11:55;;;;;;;7.77;2.13;;;;;;;;;;4978567;28;20187;-56
2021/07/30 01:14:20;;;;;;;4.33;2.07;;;;;;;;;;4964263;28;20210;-56
2021/07/30 01:16:45;;;;;;;4.37;2.53;;;;;;;;;;4987408;28;20191;-57
2021/07/30 01:19:19;;;;;;;7.77;2.77;;;;;;;;;;4969216;28;20184;-56
2021/07/30 01:21:45;;;;;;;5.80;2.60;;;;;;;;;;4981431;28;20657;-56
2021/07/30 01:24:11;;;;;;;6.07;2.73;;;;;;;;;;4990936;28;20575;-56
2021/07/30 01:26:36;;;;;;;5.10;2.20;;;;;;;;;;4987187;28;20180;-55
2021/07/30 01:29:01;;;;;;;4.40;2.20;;;;;;;;;;4977575;28;20185;-55
2021/07/30 01:31:26;;;;;;;4.33;2.50;;;;;;;;;;4964546;28;20188;-56
2021/07/30 01:33:51;;;;;;;4.57;2.33;;;;;;;;;;4988223;28;20211;-56
2021/07/30 01:36:17;;;;;;;6.70;2.57;;;;;;;;;;4981591;28;20217;-56
2021/07/30 01:38:42;;;;;;;5.57;3.13;;;;;;;;;;4967689;28;20247;-56
2021/07/30 01:41:10;;;;;;;8.03;3.10;;;;;;;;;;4979692;28;20724;-56
2021/07/30 01:43:39;;;;;;;4.97;3.40;;;;;;;;;;4976056;28;20226;-56
2021/07/30 01:46:05;;;;;;;6.90;2.90;;;;;;;;;;4970253;28;20207;-55
2021/07/30 01:48:30;;;;;;;6.00;3.23;;;;;;;;;;4982940;28;20568;-56
2021/07/30 01:50:55;;;;;;;6.47;3.00;;;;;;;;;;4966589;28;20715;-56
2021/07/30 01:53:20;;;;;;;5.53;2.40;;;;;;;;;;4975073;28;20563;-55
2021/07/30 01:55:45;;;;;;;4.47;2.40;;;;;;;;;;4960004;28;20219;-55
2021/07/30 01:58:12;;;;;;;5.43;2.63;;;;;;;;;;4981122;28;20192;-55
2021/07/30 02:00:37;;;;;;;7.33;2.20;;;;;;;;;;4974692;28;20682;-55
2021/07/30 02:03:02;;;;;;;6.67;2.67;;;;;;;;;;4984726;28;20230;-55
2021/07/30 02:05:27;;;;;;;7.43;2.57;;;;;;;;;;4972729;28;20218;-55
2021/07/30 02:07:52;;;;;;;5.17;2.43;;;;;;;;;;4988069;28;20177;-55
2021/07/30 02:10:18;;;;;;;3.63;2.50;;;;;;;;;;4960728;28;20535;-56
2021/07/30 02:15:27;;;;;;;6.67;2.70;;;;;;;;;;4982701;28;20250;-56
2021/07/30 02:17:52;;;;;;;5.03;3.00;;;;;;;;;;4987194;28;20175;-56
2021/07/30 02:20:17;;;;;;;6.17;2.80;;;;;;;;;;4985555;28;20189;-56
2021/07/30 02:22:42;;;;;;;6.20;2.93;;;;;;;;;;4979257;28;20193;-55
2021/07/30 02:25:07;;;;;;;6.00;2.93;;;;;;;;;;4975563;28;20808;-55
2021/07/30 02:27:33;;;;;;;5.37;2.67;;;;;;;;;;4985592;28;20184;-55
2021/07/30 02:29:58;;;;;;;6.97;2.83;;;;;;;;;;4961938;28;20655;-55
2021/07/30 02:32:23;;;;;;;4.90;3.17;;;;;;;;;;4988755;28;20188;-55
2021/07/30 02:34:48;;;;;;;6.40;2.87;;;;;;;;;;4976233;28;20231;-55
2021/07/30 02:37:13;;;;;;;4.53;2.90;;;;;;;;;;4956527;28;20208;-55
2021/07/30 02:39:39;;;;;;;5.13;3.03;;;;;;;;;;4974123;28;20743;-55
2021/07/30 02:42:04;;;;;;;5.23;2.90;;;;;;;;;;4975258;28;20214;-56
2021/07/30 02:44:29;;;;;;;4.30;2.90;;;;;;;;;;4972593;28;20716;-57
2021/07/30 02:46:54;;;;;;;5.07;3.10;;;;;;;;;;4980447;28;20180;-55
2021/07/30 02:49:19;;;;;;;4.90;3.10;;;;;;;;;;4980098;28;20185;-56
2021/07/30 02:51:45;;;;;;;4.57;3.33;;;;;;;;;;4977108;28;20861;-56
2021/07/30 02:54:10;;;;;;;6.73;3.33;;;;;;;;;;4979456;28;20216;-55
2021/07/30 02:56:35;;;;;;;5.27;3.10;;;;;;;;;;4978563;28;20180;-56
2021/07/30 02:59:01;;;;;;;5.13;3.33;;;;;;;;;;4988430;28;20180;-55
2021/07/30 03:01:27;;;;;;;6.00;3.63;;;;;;;;;;4976685;28;20258;-56
2021/07/30 03:03:52;;;;;;;3.57;2.90;;;;;;;;;;4967278;28;20200;-56
2021/07/30 03:06:17;;;;;;;4.47;2.87;;;;;;;;;;4987903;28;20205;-56
2021/07/30 03:08:42;;;;;;;7.67;3.53;;;;;;;;;;4997711;28;20213;-56
2021/07/30 03:11:07;;;;;;;6.03;3.10;;;;;;;;;;4976889;28;20208;-56
2021/07/30 03:13:32;;;;;;;4.53;3.00;;;;;;;;;;4984831;28;20200;-56
2021/07/30 03:15:58;;;;;;;5.33;3.03;;;;;;;;;;4983272;28;20260;-56
2021/07/30 03:18:26;;;;;;;4.83;3.27;;;;;;;;;;4983783;28;20191;-56
2021/07/30 03:20:51;;;;;;;10.10;3.40;;;;;;;;;;4975051;28;20204;-56
2021/07/30 03:23:16;;;;;;;4.60;3.03;;;;;;;;;;4958101;28;20212;-56
2021/07/30 03:25:41;;;;;;;5.70;3.17;;;;;;;;;;4976003;28;20216;-55
2021/07/30 03:28:07;;;;;;;4.37;2.80;;;;;;;;;;4974659;28;20238;-56
2021/07/30 03:30:32;;;;;;;5.23;3.07;;;;;;;;;;4975238;28;20187;-56
2021/07/30 03:32:57;;;;;;;3.80;2.90;;;;;;;;;;4982338;28;20181;-56
2021/07/30 03:35:22;;;;;;;6.57;3.43;;;;;;;;;;4980921;28;20203;-56
2021/07/30 03:37:47;;;;;;;4.57;3.07;;;;;;;;;;4976000;28;20842;-56
2021/07/30 03:40:13;;;;;;;8.27;2.87;;;;;;;;;;4954589;28;20196;-55
2021/07/30 03:42:38;;;;;;;5.83;2.97;;;;;;;;;;4974119;28;20212;-56
2021/07/30 03:45:04;;;;;;;7.90;3.00;;;;;;;;;;4962081;28;20212;-56
2021/07/30 03:47:29;;;;;;;6.50;3.10;;;;;;;;;;4979503;28;20211;-55
2021/07/30 03:49:54;;;;;;;5.40;3.03;;;;;;;;;;4976012;28;20188;-56
2021/07/30 03:52:19;;;;;;;5.83;3.50;;;;;;;;;;4978044;28;20203;-55
2021/07/30 03:54:44;;;;;;;7.03;3.37;;;;;;;;;;4973741;28;20216;-55
2021/07/30 03:57:09;;;;;;;5.17;3.10;;;;;;;;;;4981385;28;20219;-55
2021/07/30 03:59:35;;;;;;;5.10;2.80;;;;;;;;;;4983196;28;20190;-55
2021/07/30 04:02:00;;;;;;;7.33;3.50;;;;;;;;;;4980483;28;20303;-56
2021/07/30 04:04:25;;;;;;;4.87;3.00;;;;;;;;;;4975517;28;20204;-56
2021/07/30 04:06:50;;;;;;;5.77;3.10;;;;;;;;;;4990536;28;20194;-55
2021/07/30 04:09:15;;;;;;;5.80;3.13;;;;;;;;;;4976228;28;20314;-56
2021/07/30 04:11:41;;;;;;;5.50;3.17;;;;;;;;;;4986183;28;20253;-56
2021/07/30 04:14:06;;;;;;;6.70;3.43;;;;;;;;;;4986098;28;20203;-54
2021/07/30 04:16:33;;;;;;;5.27;2.50;;;;;;;;;;4975373;28;20257;-55
2021/07/30 04:18:58;;;;;;;5.13;3.23;;;;;;;;;;4974001;28;20194;-55
2021/07/30 04:21:23;;;;;;;7.40;3.00;;;;;;;;;;4974015;28;20218;-56
2021/07/30 04:23:48;;;;;;;7.93;3.55;;;;;;;;;;4972085;28;20907;-56
2021/07/30 04:26:13;;;;;;;8.97;3.10;;;;;;;;;;4989091;28;20203;-56
2021/07/30 04:28:38;;;;;;;8.27;3.10;;;;;;;;;;4982470;28;20198;-56
2021/07/30 04:31:04;;;;;;;5.70;3.07;;;;;;;;;;4986169;28;20180;-56
2021/07/30 04:33:30;;;;;;;4.07;3.20;;;;;;;;;;4983991;28;20242;-56
2021/07/30 04:35:55;;;;;;;9.57;3.33;;;;;;;;;;4987127;28;20179;-56
2021/07/30 04:38:20;;;;;;;7.00;3.17;;;;;;;;;;4979851;28;20223;-56
2021/07/30 04:40:45;;;;;;;7.40;3.53;;;;;;;;;;4985230;28;20180;-56
2021/07/30 04:43:11;;;;;;;7.93;3.43;;;;;;;;;;4985283;28;20731;-56
2021/07/30 04:45:36;;;;;;;9.47;3.63;;;;;;;;;;4964638;28;20621;-56
2021/07/30 04:48:01;;;;;;;6.40;3.50;;;;;;;;;;4971100;28;20199;-55
2021/07/30 04:50:26;;;;;;;6.40;3.57;;;;;;;;;;4975289;28;20177;-56
2021/07/30 04:52:55;;;;;;;7.77;3.33;;;;;;;;;;4983949;28;20204;-56
2021/07/30 04:55:20;;;;;;;5.03;3.27;;;;;;;;;;4978126;28;20739;-56
2021/07/30 04:57:45;;;;;;;5.70;3.30;;;;;;;;;;4978610;28;20207;-56
2021/07/30 05:00:10;;;;;;;6.33;3.37;;;;;;;;;;4980115;28;20267;-56
2021/07/30 05:02:36;;;;;;;6.03;3.33;;;;;;;;;;4967532;28;20207;-56
2021/07/30 05:05:01;;;;;;;4.10;2.70;;;;;;;;;;4991316;28;20257;-56
2021/07/30 05:07:26;;;;;;;7.10;3.50;;;;;;;;;;4959843;28;20243;-56
2021/07/30 05:09:51;;;;;;;5.73;2.80;;;;;;;;;;4972580;28;20184;-56
2021/07/30 05:12:16;;;;;;;3.87;2.90;;;;;;;;;;4981024;28;20191;-56
2021/07/30 05:14:42;;;;;;;5.83;3.27;;;;;;;;;;4983665;28;20201;-56
2021/07/30 05:17:07;;;;;;;6.33;3.13;;;;;;;;;;4977466;28;20323;-56
2021/07/30 05:19:32;;;;;;;5.83;2.80;;;;;;;;;;4991286;28;20181;-56
2021/07/30 05:21:57;;;;;;;7.53;2.33;;;;;;;;;;4987287;28;20283;-55
2021/07/30 05:24:22;;;;;;;3.20;2.50;;;;;;;;;;4980786;28;20561;-56
2021/07/30 05:26:48;;;;;;;5.30;2.70;;;;;;;;;;4978909;28;20180;-56
2021/07/30 05:29:13;;;;;;;3.93;2.63;;;;;;;;;;4976539;28;20287;-56
2021/07/30 05:31:38;;;;;;;5.43;2.80;;;;;;;;;;4974081;28;20467;-55
2021/07/30 05:34:03;;;;;;;12.50;3.23;;;;;;;;;;4975607;28;20250;-56
2021/07/30 05:36:28;;;;;;;6.13;2.93;;;;;;;;;;4988218;28;20204;-56
2021/07/30 05:38:53;;;;;;;7.57;2.67;;;;;;;;;;4981035;28;20193;-56
2021/07/30 05:41:19;;;;;;;6.47;2.90;;;;;;;;;;4959457;28;20276;-56
2021/07/30 05:43:45;;;;;;;4.50;2.73;;;;;;;;;;4976338;28;20675;-55
2021/07/30 05:46:13;;;;;;;12.50;3.37;;;;;;;;;;4982337;28;20177;-55
2021/07/30 05:48:38;;;;;;;7.03;3.07;;;;;;;;;;4987004;28;20180;-55
2021/07/30 05:51:03;;;;;;;6.83;2.80;;;;;;;;;;4981831;28;20261;-55
2021/07/30 05:53:28;;;;;;;7.43;2.97;;;;;;;;;;4984459;28;20201;-56
2021/07/30 05:55:54;;;;;;;7.43;3.17;;;;;;;;;;4984679;28;20287;-55
2021/07/30 05:58:19;;;;;;;6.22;2.75;;;;;;;;;;4990539;28;20184;-56
2021/07/30 06:00:44;;;;;;;6.93;2.60;;;;;;;;;;4977996;28;20672;-55
2021/07/30 06:03:09;;;;;;;7.43;3.30;;;;;;;;;;4963927;28;20208;-55
2021/07/30 06:05:34;;;;;;;5.10;2.90;;;;;;;;;;4982254;28;20208;-56
2021/07/30 06:08:00;;;;;;;5.63;3.50;;;;;;;;;;4990811;28;20183;-55
2021/07/30 06:10:25;;;;;;;5.38;2.30;;;;;;;;;;4974267;28;20173;-55
2021/07/30 06:12:51;;;;;;;5.78;2.78;;;;;;;;;;4967731;28;20187;-56
2021/07/30 06:15:16;;;;;;;7.10;2.75;;;;;;;;;;4984430;28;20209;-56
2021/07/30 06:17:43;;;;;;;7.28;2.65;;;;;;;;;;4978360;28;20242;-56
2021/07/30 06:20:09;;;;;;;6.30;3.25;;;;;;;;;;4971409;28;20173;-56
2021/07/30 06:22:36;;;;;;;8.57;2.72;;;;;;;;;;4973900;28;20202;-56
2021/07/30 06:25:02;;;;;;;11.82;3.15;;;;;;;;;;4985220;28;20235;-56
2021/07/30 06:27:28;;;;;;;7.05;2.80;;;;;;;;;;4972438;28;20199;-56
2021/07/30 06:29:53;;;;;;;7.13;2.70;;;;;;;;;;4984654;28;20177;-56
2021/07/30 06:32:18;;;;;;;7.75;2.85;;;;;;;;;;4961813;28;20210;-55
2021/07/30 06:34:43;;;;;;;7.05;3.25;;;;;;;;;;4968440;28;20213;-56
2021/07/30 06:37:08;;;;;;;6.18;2.50;;;;;;;;;;4985157;28;20180;-56
2021/07/30 06:39:33;;;;;;;8.17;2.87;;;;;;;;;;4989531;28;20192;-56
2021/07/30 06:41:59;;;;;;;9.93;2.77;;;;;;;;;;4981814;28;20475;-56
2021/07/30 06:44:24;;;;;;;5.40;2.65;;;;;;;;;;4978679;28;20443;-55
2021/07/30 06:46:50;;;;;;;9.50;3.67;;;;;;;;;;4990702;28;21113;-56
2021/07/30 06:49:15;;;;;;;6.78;2.78;;;;;;;;;;4980541;28;20680;-56
2021/07/30 06:51:40;;;;;;;5.40;2.65;;;;;;;;;;4963161;28;20271;-55
2021/07/30 06:54:05;;;;;;;9.07;2.73;;;;;;;;;;4986465;28;20274;-55
2021/07/30 06:56:30;;;;;;;4.47;2.20;;;;;;;;;;4983150;28;20519;-55
2021/07/30 06:58:56;;;;;;;4.75;2.60;;;;;;;;;;4977227;28;20466;-55
2021/07/30 07:01:21;;;;;;;5.85;2.70;;;;;;;;;;4968723;28;20192;-56
2021/07/30 07:03:49;;;;;;;6.43;3.00;;;;;;;;;;4988785;28;20180;-55
2021/07/30 07:06:15;;;;;;;9.93;2.80;;;;;;;;;;4980372;28;20181;-55
2021/07/30 07:08:40;;;;;;;8.52;2.80;;;;;;;;;;4970894;28;20187;-56
2021/07/30 07:11:05;;;;;;;7.65;3.00;;;;;;;;;;4959078;28;20176;-55
2021/07/30 07:13:30;;;;;;;5.07;2.37;;;;;;;;;;4982493;28;20213;-54
2021/07/30 07:15:56;;;;;;;9.85;2.60;;;;;;;;;;4980241;28;20486;-55
2021/07/30 07:18:21;;;;;;;11.73;3.37;;;;;;;;;;4979770;28;20726;-55
2021/07/30 07:20:47;;;;;;;6.13;2.80;;;;;;;;;;4955755;28;20421;-55
2021/07/30 07:23:12;;;;;;;6.15;2.92;;;;;;;;;;4975078;28;20511;-56
2021/07/30 07:25:38;;;;;;;7.50;2.80;;;;;;;;;;4980787;28;20362;-55
2021/07/30 07:28:03;;;;;;;5.95;2.80;;;;;;;;;;4985368;28;20892;-55
2021/07/30 07:30:28;;;;;;;7.70;2.38;;;;;;;;;;4976387;28;20267;-54
2021/07/30 07:32:54;;;;;;;6.37;3.03;;;;;;;;;;4974153;28;20189;-55
2021/07/30 07:35:19;;;;;;;8.93;2.72;;;;;;;;;;4969256;28;20481;-55
2021/07/30 07:37:44;;;;;;;5.88;2.80;;;;;;;;;;4976220;28;20203;-55
2021/07/30 07:40:09;;;;;;;5.33;2.60;;;;;;;;;;4980871;28;20645;-55
2021/07/30 07:42:35;;;;;;;6.25;2.58;;;;;;;;;;4981860;28;20586;-55
2021/07/30 07:45:01;;;;;;;9.38;2.70;;;;;;;;;;4981715;28;20242;-56
2021/07/30 07:47:26;;;;;;;6.90;2.63;;;;;;;;;;4974433;28;20304;-55
2021/07/30 07:49:51;;;;;;;5.53;2.65;;;;;;;;;;4987452;28;20676;-56
2021/07/30 07:52:16;;;;;;;8.82;3.45;;;;;;;;;;4967851;28;20871;-56
2021/07/30 07:54:42;;;;;;;6.13;2.70;;;;;;;;;;4988394;28;20692;-56
2021/07/30 07:57:07;;;;;;;5.28;2.53;;;;;;;;;;4979194;28;20179;-55
2021/07/30 07:59:33;;;;;;;4.57;2.53;;;;;;;;;;4971493;28;20188;-55
2021/07/30 08:01:58;;;;;;;5.57;2.60;;;;;;;;;;4981330;28;20754;-56
2021/07/30 08:04:23;;;;;;;7.03;3.25;;;;;;;;;;4980201;28;20199;-56
2021/07/30 08:06:48;;;;;;;9.20;3.23;;;;;;;;;;4971538;28;20184;-56
2021/07/30 08:09:13;;;;;;;10.87;3.27;;;;;;;;;;4980332;28;20412;-55
2021/07/30 08:11:38;;;;;;;7.00;2.97;;;;;;;;;;4985944;28;20438;-56
2021/07/30 08:14:04;;;;;;;5.80;2.60;;;;;;;;;;4971348;28;20207;-56
2021/07/30 08:16:29;;;;;;;6.77;3.30;;;;;;;;;;4978325;28;20437;-56
2021/07/30 08:18:54;;;;;;;6.85;2.90;;;;;;;;;;4984532;28;20439;-56
2021/07/30 08:21:19;;;;;;;4.90;2.78;;;;;;;;;;4992968;28;20184;-57
2021/07/30 08:23:45;;;;;;;5.47;2.90;;;;;;;;;;4989492;28;20800;-55
2021/07/30 08:26:10;;;;;;;5.15;3.00;;;;;;;;;;4983999;28;20611;-55
2021/07/30 08:28:35;;;;;;;6.83;3.07;;;;;;;;;;4988915;28;20192;-55
2021/07/30 08:31:01;;;;;;;6.17;3.10;;;;;;;;;;4972691;28;20180;-55
2021/07/30 08:33:26;;;;;;;7.47;3.40;;;;;;;;;;4991577;28;20176;-55
2021/07/30 08:35:52;;;;;;;7.35;3.40;;;;;;;;;;4992536;28;20211;-55
2021/07/30 08:38:17;;;;;;;26.98;3.67;;;;;;;;;;4980535;28;20207;-55
2021/07/30 08:40:43;;;;;;;4.27;2.90;;;;;;;;;;4981380;28;20206;-55
2021/07/30 08:43:12;;;;;;;4.55;2.60;;;;;;;;;;4982708;28;20212;-55
2021/07/30 08:45:37;;;;;;;7.63;2.90;;;;;;;;;;4990215;28;20204;-55
2021/07/30 08:48:02;;;;;;;6.03;2.70;;;;;;;;;;4977840;28;20667;-58
2021/07/30 08:50:28;;;;;;;6.43;2.70;;;;;;;;;;4996718;28;20198;-57
2021/07/30 08:52:55;;;;;;;4.88;2.65;;;;;;;;;;4992388;28;20180;-57
2021/07/30 08:55:27;;;;;;;5.38;2.85;;;;;;;;;;4995849;28;20208;-57
2021/07/30 08:57:52;;;;;;;5.25;2.47;;;;;;;;;;4990815;28;20173;-55
2021/07/30 09:00:19;;;;;;;8.47;3.17;;;;;;;;;;4985104;28;20186;-55
2021/07/30 09:02:44;;;;;;;12.48;3.30;;;;;;;;;;4968561;28;20575;-55
2021/07/30 09:05:25;;;;;;;5.88;2.67;;;;;;;;;;4980393;28;20208;-55
2021/07/30 09:07:50;;;;;;;7.53;2.80;;;;;;;;;;4985556;28;20183;-56
2021/07/30 09:10:28;;;;;;;4.57;2.20;;;;;;;;;;4983806;28;20553;-55
2021/07/30 09:13:12;;;;;;;12.77;2.95;;;;;;;;;;4983678;28;20180;-55
2021/07/30 09:15:37;;;;;;;3.80;2.30;;;;;;;;;;4990548;28;20207;-55
2021/07/30 09:18:03;;;;;;;6.90;2.50;;;;;;;;;;4984342;28;20728;-54
2021/07/30 09:20:29;;;;;;;4.50;2.50;;;;;;;;;;4985755;28;20430;-55
2021/07/30 09:22:54;;;;;;;9.30;2.57;;;;;;;;;;4987639;28;20211;-55
2021/07/30 09:25:36;;;;;;;6.78;2.33;;;;;;;;;;4991832;28;20447;-55
2021/07/30 09:28:05;;;;;;;5.35;2.33;;;;;;;;;;4988304;28;20184;-55
2021/07/30 09:30:31;;;;;;;4.57;2.13;;;;;;;;;;4974841;28;20181;-55
2021/07/30 09:32:56;;;;;;;2.38;1.70;;;;;;;;;;4991434;28;20254;-57
2021/07/30 09:35:21;;;;;;;8.77;2.00;;;;;;;;;;4988610;28;20680;-56
2021/07/30 09:37:46;;;;;;;3.57;2.00;;;;;;;;;;4989369;28;20254;-56
2021/07/30 09:40:20;;;;;;;5.67;1.90;;;;;;;;;;4989809;28;20434;-56
2021/07/30 09:42:46;;;;;;;3.97;1.98;;;;;;;;;;4987748;28;20459;-56
2021/07/30 09:45:14;;;;;;;11.27;2.55;;;;;;;;;;4972140;28;20212;-56
2021/07/30 09:47:46;;;;;;;5.43;2.15;;;;;;;;;;4993527;28;20258;-55
2021/07/30 09:50:11;;;;;;;4.47;2.10;;;;;;;;;;4982319;28;20176;-56
2021/07/30 09:52:38;;;;;;;5.70;2.10;;;;;;;;;;4982068;28;20196;-56
2021/07/30 09:55:06;;;;;;;3.65;1.95;;;;;;;;;;4988491;28;20675;-56
2021/07/30 09:57:35;;;;;;;6.43;1.75;;;;;;;;;;4983369;28;20552;-57
2021/07/30 10:00:01;;;;;;;7.28;2.25;;;;;;;;;;4959847;28;20189;-57
2021/07/30 10:02:30;;;;;;;5.28;2.17;;;;;;;;;;4988760;28;20211;-56
2021/07/30 10:04:56;;;;;;;8.38;2.13;;;;;;;;;;4982814;28;20234;-56
2021/07/30 10:07:22;;;;;;;8.20;2.42;;;;;;;;;;4982786;28;20661;-56
2021/07/30 10:09:51;;;;;;;5.72;1.92;;;;;;;;;;4987559;28;20180;-57
2021/07/30 10:12:17;;;;;;;9.55;2.20;;;;;;;;;;4977036;28;20267;-56
2021/07/30 10:14:43;;;;;;;6.25;2.28;;;;;;;;;;4980547;28;20286;-56
2021/07/30 10:17:09;;;;;;;11.15;2.30;;;;;;;;;;4978162;28;20196;-56
2021/07/30 10:19:34;;;;;;;11.13;2.10;;;;;;;;;;4980999;28;20239;-56
2021/07/30 10:22:01;;;;;;;4.85;2.08;;;;;;;;;;4984107;28;20271;-56
2021/07/30 10:24:28;;;;;;;5.65;1.92;;;;;;;;;;4986406;28;20235;-55
2021/07/30 10:26:55;;;;;;;7.22;2.58;;;;;;;;;;4986573;28;20238;-56
2021/07/30 10:29:20;;;;;;;13.77;2.53;;;;;;;;;;4970483;28;20187;-56
2021/07/30 10:31:49;;;;;;;7.40;1.98;;;;;;;;;;4987455;28;20180;-55
2021/07/30 10:34:15;;;;;;;10.88;2.40;;;;;;;;;;4980005;28;20200;-56
2021/07/30 10:36:40;;;;;;;3.58;1.63;;;;;;;;;;4979366;28;20279;-57
2021/07/30 10:39:08;;;;;;;9.27;2.10;;;;;;;;;;4963926;28;20263;-56
2021/07/30 10:41:34;;;;;;;6.20;2.15;;;;;;;;;;4958464;28;20268;-56
2021/07/30 10:43:59;;;;;;;3.90;1.60;;;;;;;;;;4977098;28;20280;-55
2021/07/30 10:46:24;;;;;;;6.30;1.77;;;;;;;;;;4969282;28;20570;-55
2021/07/30 10:48:54;;;;;;;10.23;2.20;;;;;;;;;;4983817;28;20620;-56
2021/07/30 10:51:23;;;;;;;4.03;2.22;;;;;;;;;;4982623;28;20505;-55
2021/07/30 10:53:57;;;;;;;5.28;2.10;;;;;;;;;;4978214;28;20169;-56
2021/07/30 10:56:22;;;;;;;8.65;2.17;;;;;;;;;;4987332;28;20673;-56
2021/07/30 10:58:52;;;;;;;3.80;2.10;;;;;;;;;;4980835;28;20680;-56
2021/07/30 11:01:21;;;;;;;5.85;2.13;;;;;;;;;;4977538;28;20195;-56
2021/07/30 11:03:49;;;;;;;6.18;1.77;;;;;;;;;;4981638;28;20727;-56
2021/07/30 11:06:16;;;;;;;3.15;1.70;;;;;;;;;;4985955;28;20752;-57
2021/07/30 11:09:05;;;;;;;4.15;2.13;;;;;;;;;;4992719;28;20211;-57
2021/07/30 11:11:37;;;;;;;9.10;2.03;;;;;;;;;;4988868;28;20200;-57
2021/07/30 11:14:06;;;;;;;4.30;2.00;;;;;;;;;;4965843;28;20714;-57
2021/07/30 11:16:31;;;;;;;7.50;2.28;;;;;;;;;;4974359;28;20176;-57
2021/07/30 11:18:57;;;;;;;8.93;1.60;;;;;;;;;;4963520;28;20571;-56
2021/07/30 11:21:26;;;;;;;3.20;1.70;;;;;;;;;;4980532;28;20526;-56
2021/07/30 11:23:51;;;;;;;5.07;1.90;;;;;;;;;;4993120;28;20192;-57
2021/07/30 11:26:18;;;;;;;4.80;1.67;;;;;;;;;;4988582;28;20176;-56
2021/07/30 11:28:48;;;;;;;4.88;1.65;;;;;;;;;;4983128;28;20444;-56
2021/07/30 11:31:14;;;;;;;8.73;1.75;;;;;;;;;;4967807;28;20645;-56
2021/07/30 11:33:41;;;;;;;8.18;2.17;;;;;;;;;;4979361;28;20271;-56
2021/07/30 11:36:13;;;;;;;3.00;1.80;;;;;;;;;;4954553;28;20184;-56
2021/07/30 11:38:57;;;;;;;5.32;1.90;;;;;;;;;;4968770;28;20275;-56
2021/07/30 11:41:23;;;;;;;4.63;1.92;;;;;;;;;;4985865;28;20758;-56
2021/07/30 11:43:56;;;;;;;3.47;1.88;;;;;;;;;;4977116;28;20192;-57
2021/07/30 11:46:21;;;;;;;3.67;2.00;;;;;;;;;;4985475;28;20184;-57
2021/07/30 11:48:46;;;;;;;4.32;1.90;;;;;;;;;;4979923;28;20208;-57
2021/07/30 11:51:12;;;;;;;4.22;1.80;;;;;;;;;;4977247;28;20854;-57
2021/07/30 11:53:38;;;;;;;3.05;1.70;;;;;;;;;;4986296;28;20676;-56
2021/07/30 11:56:03;;;;;;;4.13;2.30;;;;;;;;;;4978329;28;20258;-57
2021/07/30 11:58:28;;;;;;;5.07;1.93;;;;;;;;;;4966741;28;20236;-58
2021/07/30 12:01:07;;;;;;;8.38;2.22;;;;;;;;;;4974864;28;20816;-56
2021/07/30 12:03:32;;;;;;;3.72;1.90;;;;;;;;;;4984176;28;20229;-56
2021/07/30 12:05:59;;;;;;;3.00;1.90;;;;;;;;;;4981784;28;20784;-56
2021/07/30 12:08:25;;;;;;;3.45;1.90;;;;;;;;;;4971906;28;20422;-56
2021/07/30 12:10:50;;;;;;;3.45;1.85;;;;;;;;;;4973586;28;20272;-56
2021/07/30 12:13:16;;;;;;;6.60;2.00;;;;;;;;;;4969942;28;20562;-57
2021/07/30 12:15:42;;;;;;;9.40;2.15;;;;;;;;;;4977580;28;20204;-56
2021/07/30 12:18:07;;;;;;;3.35;1.40;;;;;;;;;;4984382;28;20208;-56
2021/07/30 12:20:33;;;;;;;3.75;1.67;;;;;;;;;;4976428;28;20186;-56
2021/07/30 12:23:09;;;;;;;3.15;1.58;;;;;;;;;;4969281;28;20200;-56
2021/07/30 12:25:36;;;;;;;2.90;1.77;;;;;;;;;;4983590;28;20717;-57
2021/07/30 12:28:08;;;;;;;1.92;1.38;;;;;;;;;;4986551;28;20188;-56
2021/07/30 12:30:34;;;;;;;2.70;1.60;;;;;;;;;;4986904;28;20279;-57
2021/07/30 12:32:59;;;;;;;5.75;1.90;;;;;;;;;;4962844;28;20311;-56
2021/07/30 12:35:31;;;;;;;4.07;1.60;;;;;;;;;;4968280;28;20246;-56
2021/07/30 12:38:02;;;;;;;2.70;1.80;;;;;;;;;;4986695;28;20187;-56
2021/07/30 12:40:27;;;;;;;2.08;1.70;;;;;;;;;;4975163;28;20215;-56
2021/07/30 12:43:09;;;;;;;3.88;1.90;;;;;;;;;;4976754;28;20244;-55
2021/07/30 12:45:42;;;;;;;2.30;1.48;;;;;;;;;;4978055;28;20285;-57
2021/07/30 12:48:07;;;;;;;3.63;1.70;;;;;;;;;;4985291;28;20175;-56
2021/07/30 12:50:39;;;;;;;5.17;1.60;;;;;;;;;;4969109;28;20187;-55
2021/07/30 12:53:05;;;;;;;7.72;2.15;;;;;;;;;;4984142;28;20439;-55
2021/07/30 12:55:30;;;;;;;3.00;1.90;;;;;;;;;;4986279;28;20291;-56
2021/07/30 12:57:55;;;;;;;4.83;1.73;;;;;;;;;;4982031;28;20708;-55
2021/07/30 13:00:33;;;;;;;3.75;1.80;;;;;;;;;;4973357;28;20427;-56
2021/07/30 13:02:58;;;;;;;7.22;2.28;;;;;;;;;;4987407;28;20714;-56
2021/07/30 13:05:30;;;;;;;3.22;1.95;;;;;;;;;;4986762;28;20208;-57
2021/07/30 13:07:55;;;;;;;3.38;1.70;;;;;;;;;;4983371;28;20176;-56
2021/07/30 13:10:20;;;;;;;3.97;2.03;;;;;;;;;;4986521;28;20676;-55
2021/07/30 13:12:46;;;;;;;3.17;1.70;;;;;;;;;;4960975;28;20479;-56
2021/07/30 13:15:11;;;;;;;2.78;1.65;;;;;;;;;;4981972;28;20224;-56
2021/07/30 13:17:36;;;;;;;2.30;1.73;;;;;;;;;;4979809;28;20242;-56
2021/07/30 13:20:02;;;;;;;6.00;2.35;;;;;;;;;;4985715;28;20191;-56
2021/07/30 13:22:27;;;;;;;6.28;1.92;;;;;;;;;;4995009;28;20210;-56
2021/07/30 13:24:52;;;;;;;2.78;1.77;;;;;;;;;;4986255;28;20290;-55
2021/07/30 13:27:18;;;;;;;2.97;2.10;;;;;;;;;;4969732;28;20584;-55
2021/07/30 13:29:43;;;;;;;5.75;1.85;;;;;;;;;;4977061;28;20180;-55
2021/07/30 13:32:08;;;;;;;9.53;2.27;;;;;;;;;;4979746;28;20722;-56
2021/07/30 13:34:34;;;;;;;7.38;2.30;;;;;;;;;;4981702;28;20458;-55
2021/07/30 13:36:59;;;;;;;10.43;1.95;;;;;;;;;;4988660;23;20660;-89
2021/07/30 13:39:24;;;;;;;4.25;1.70;;;;;;;;;;5019324;28;20629;-88
2021/07/30 13:41:49;;;;;;;8.02;1.80;;;;;;;;;;5031316;28;20202;-88
2021/07/30 13:44:14;;;;;;;5.55;2.08;;;;;;;;;;5029812;28;20313;-89
2021/07/30 13:46:40;;;;;;;5.38;2.00;;;;;;;;;;5015231;28;20318;-88
2021/07/30 13:49:05;;;;;;;7.57;2.40;;;;;;;;;;4999124;28;20188;-88
2021/07/30 13:51:30;;;;;;;8.25;2.58;;;;;;;;;;4987358;28;20179;-86
2021/07/30 13:53:55;;;;;;;5.70;2.03;;;;;;;;;;5010728;28;20198;-87
2021/07/30 13:56:20;;;;;;;8.80;2.25;;;;;;;;;;5011799;28;20500;-86
2021/07/30 13:58:46;;;;;;;5.57;2.00;;;;;;;;;;5012679;28;20175;-88
2021/07/30 14:01:16;;;;;;;2.92;1.70;;;;;;;;;;5010765;28;20879;-86
2021/07/30 14:03:41;;;;;;;4.93;1.80;;;;;;;;;;5009718;28;20273;-87
2021/07/30 14:06:09;;;;;;;2.88;1.88;;;;;;;;;;5012458;28;20207;-88
2021/07/30 14:08:35;;;;;;;3.78;1.90;;;;;;;;;;4998507;28;20418;-82
2021/07/30 14:11:00;;;;;;;6.00;1.87;;;;;;;;;;5010005;28;20182;-84
2021/07/30 14:13:25;;;;;;;3.37;1.80;;;;;;;;;;5009125;28;20434;-83
2021/07/30 14:15:50;;;;;;;2.97;1.90;;;;;;;;;;5011051;28;20432;-83
2021/07/30 14:18:15;;;;;;;3.58;2.15;;;;;;;;;;5010983;28;21012;-83
2021/07/30 14:20:40;;;;;;;2.60;2.25;;;;;;;;;;5010035;28;20196;-84
2021/07/30 14:23:06;;;;;;;3.25;1.75;;;;;;;;;;5018535;28;20241;-85
2021/07/30 14:25:31;;;;;;;3.10;1.83;;;;;;;;;;5012498;28;20280;-86
2021/07/30 14:27:56;;;;;;;4.97;2.17;;;;;;;;;;5010581;28;20190;-86
2021/07/30 14:30:21;;;;;;;3.53;2.10;;;;;;;;;;5010615;28;20516;-86
2021/07/30 14:32:46;;;;;;;5.47;1.80;;;;;;;;;;5009240;28;20426;-84
2021/07/30 14:35:12;;;;;;;8.17;2.27;;;;;;;;;;5010770;28;20199;-85
2021/07/30 14:37:37;;;;;;;3.20;1.60;;;;;;;;;;4995469;28;20481;-84
2021/07/30 14:40:03;;;;;;;3.70;1.95;;;;;;;;;;5021958;28;20683;-86